sensor_id;sensor_type;location;lat;lon;timestamp;P1;durP1;ratioP1;P2;durP2;ratioP2
22363;SDS011;11349;53.412;-1.328;2024-03-07T00:00:21;42.15;;;26.50;;
22363;SDS011;11349;53.412;-1.328;2024-03-07T00:02:50;47.22;;;25.60;;
22363;SDS011;11349;53.412;-1.328;2024-03-07T00:05:20;47.97;;;26.23;;
22363;SDS011;11349;53.412;-1.328;2024-03-07T00:07:49;42.90;;;25.17;;
22363;SDS011;11349;53.412;-1.328;2024-03-07T00:10:15;43.05;;;24.45;;
22363;SDS011;11349;53.412;-1.328;2024-03-07T00:12:42;44.63;;;25.48;;
22363;SDS011;11349;53.412;-1.328;2024-03-07T00:15:09;46.33;;;26.42;;
22363;SDS011;11349;53.412;-1.328;2024-03-07T00:17:36;41.15;;;25.13;;
22363;SDS011;11349;53.412;-1.328;2024-03-07T00:20:03;49.28;;;25.48;;
22363;SDS011;11349;53.412;-1.328;2024-03-07T00:22:33;42.45;;;25.08;;
22363;SDS011;11349;53.412;-1.328;2024-03-07T00:25:00;45.10;;;25.55;;
22363;SDS011;11349;53.412;-1.328;2024-03-07T00:27:26;41.63;;;24.73;;
22363;SDS011;11349;53.412;-1.328;2024-03-07T00:29:52;46.80;;;26.10;;
22363;SDS011;11349;53.412;-1.328;2024-03-07T00:32:21;47.55;;;26.27;;
22363;SDS011;11349;53.412;-1.328;2024-03-07T00:34:53;47.72;;;28.08;;
22363;SDS011;11349;53.412;-1.328;2024-03-07T00:37:18;49.42;;;26.23;;
22363;SDS011;11349;53.412;-1.328;2024-03-07T00:39:44;46.50;;;24.65;;
22363;SDS011;11349;53.412;-1.328;2024-03-07T00:42:10;46.00;;;26.13;;
22363;SDS011;11349;53.412;-1.328;2024-03-07T00:44:35;50.08;;;28.15;;
22363;SDS011;11349;53.412;-1.328;2024-03-07T00:47:01;55.55;;;26.20;;
22363;SDS011;11349;53.412;-1.328;2024-03-07T00:49:28;53.40;;;28.63;;
22363;SDS011;11349;53.412;-1.328;2024-03-07T00:51:55;50.33;;;27.50;;
22363;SDS011;11349;53.412;-1.328;2024-03-07T00:54:21;51.95;;;29.45;;
22363;SDS011;11349;53.412;-1.328;2024-03-07T00:56:47;47.42;;;26.95;;
22363;SDS011;11349;53.412;-1.328;2024-03-07T00:59:14;53.00;;;28.42;;
22363;SDS011;11349;53.412;-1.328;2024-03-07T01:01:41;47.13;;;26.95;;
22363;SDS011;11349;53.412;-1.328;2024-03-07T01:04:07;48.22;;;28.10;;
22363;SDS011;11349;53.412;-1.328;2024-03-07T01:06:33;47.83;;;27.33;;
22363;SDS011;11349;53.412;-1.328;2024-03-07T01:08:59;51.88;;;29.17;;
22363;SDS011;11349;53.412;-1.328;2024-03-07T01:11:25;56.15;;;29.48;;
22363;SDS011;11349;53.412;-1.328;2024-03-07T01:13:51;56.33;;;31.33;;
22363;SDS011;11349;53.412;-1.328;2024-03-07T01:16:17;54.38;;;30.33;;
22363;SDS011;11349;53.412;-1.328;2024-03-07T01:18:42;54.30;;;30.38;;
22363;SDS011;11349;53.412;-1.328;2024-03-07T01:21:08;52.35;;;29.85;;
22363;SDS011;11349;53.412;-1.328;2024-03-07T01:23:34;56.65;;;32.80;;
22363;SDS011;11349;53.412;-1.328;2024-03-07T01:26:00;68.90;;;33.95;;
22363;SDS011;11349;53.412;-1.328;2024-03-07T01:28:27;64.22;;;35.03;;
22363;SDS011;11349;53.412;-1.328;2024-03-07T01:30:56;55.92;;;33.30;;
22363;SDS011;11349;53.412;-1.328;2024-03-07T01:33:23;72.22;;;37.60;;
22363;SDS011;11349;53.412;-1.328;2024-03-07T01:35:49;68.13;;;36.03;;
22363;SDS011;11349;53.412;-1.328;2024-03-07T01:38:15;70.80;;;34.72;;
22363;SDS011;11349;53.412;-1.328;2024-03-07T01:40:42;73.63;;;36.33;;
22363;SDS011;11349;53.412;-1.328;2024-03-07T01:43:09;75.03;;;36.00;;
22363;SDS011;11349;53.412;-1.328;2024-03-07T01:45:35;71.85;;;37.70;;
22363;SDS011;11349;53.412;-1.328;2024-03-07T01:48:05;70.60;;;35.92;;
22363;SDS011;11349;53.412;-1.328;2024-03-07T01:50:35;78.55;;;36.15;;
22363;SDS011;11349;53.412;-1.328;2024-03-07T01:53:03;83.85;;;36.17;;
22363;SDS011;11349;53.412;-1.328;2024-03-07T01:55:31;95.80;;;36.63;;
22363;SDS011;11349;53.412;-1.328;2024-03-07T01:58:02;99.00;;;35.45;;
22363;SDS011;11349;53.412;-1.328;2024-03-07T02:00:29;104.13;;;35.20;;
22363;SDS011;11349;53.412;-1.328;2024-03-07T02:02:56;126.45;;;37.33;;
22363;SDS011;11349;53.412;-1.328;2024-03-07T02:05:22;148.88;;;37.67;;
22363;SDS011;11349;53.412;-1.328;2024-03-07T02:07:49;98.30;;;37.00;;
22363;SDS011;11349;53.412;-1.328;2024-03-07T02:10:16;120.28;;;38.10;;
22363;SDS011;11349;53.412;-1.328;2024-03-07T02:12:43;141.60;;;35.33;;
22363;SDS011;11349;53.412;-1.328;2024-03-07T02:15:09;113.90;;;38.65;;
22363;SDS011;11349;53.412;-1.328;2024-03-07T02:17:36;115.40;;;37.47;;
22363;SDS011;11349;53.412;-1.328;2024-03-07T02:20:02;138.85;;;35.90;;
22363;SDS011;11349;53.412;-1.328;2024-03-07T02:22:29;139.88;;;35.60;;
22363;SDS011;11349;53.412;-1.328;2024-03-07T02:24:55;148.80;;;37.35;;
22363;SDS011;11349;53.412;-1.328;2024-03-07T02:27:21;139.25;;;37.03;;
22363;SDS011;11349;53.412;-1.328;2024-03-07T02:29:47;167.70;;;37.25;;
22363;SDS011;11349;53.412;-1.328;2024-03-07T02:32:14;114.35;;;35.65;;
22363;SDS011;11349;53.412;-1.328;2024-03-07T02:34:39;150.00;;;40.22;;
22363;SDS011;11349;53.412;-1.328;2024-03-07T02:37:05;162.80;;;40.60;;
22363;SDS011;11349;53.412;-1.328;2024-03-07T02:39:31;97.63;;;39.58;;
22363;SDS011;11349;53.412;-1.328;2024-03-07T02:41:56;140.88;;;39.70;;
22363;SDS011;11349;53.412;-1.328;2024-03-07T02:44:22;126.10;;;40.80;;
22363;SDS011;11349;53.412;-1.328;2024-03-07T02:46:48;132.80;;;41.72;;
22363;SDS011;11349;53.412;-1.328;2024-03-07T02:49:14;141.25;;;42.58;;
22363;SDS011;11349;53.412;-1.328;2024-03-07T02:51:39;175.68;;;40.92;;
22363;SDS011;11349;53.412;-1.328;2024-03-07T02:54:07;143.20;;;42.13;;
22363;SDS011;11349;53.412;-1.328;2024-03-07T02:56:33;133.63;;;41.55;;
22363;SDS011;11349;53.412;-1.328;2024-03-07T02:58:59;101.75;;;39.95;;
22363;SDS011;11349;53.412;-1.328;2024-03-07T03:01:24;176.05;;;42.90;;
22363;SDS011;11349;53.412;-1.328;2024-03-07T03:03:50;176.48;;;42.85;;
22363;SDS011;11349;53.412;-1.328;2024-03-07T03:06:16;203.45;;;43.97;;
22363;SDS011;11349;53.412;-1.328;2024-03-07T03:08:45;79.45;;;35.50;;
22363;SDS011;11349;53.412;-1.328;2024-03-07T03:11:11;120.40;;;37.55;;
22363;SDS011;11349;53.412;-1.328;2024-03-07T03:13:39;184.10;;;39.88;;
22363;SDS011;11349;53.412;-1.328;2024-03-07T03:16:05;181.70;;;39.40;;
22363;SDS011;11349;53.412;-1.328;2024-03-07T03:18:34;77.85;;;36.08;;
22363;SDS011;11349;53.412;-1.328;2024-03-07T03:21:01;105.35;;;37.60;;
22363;SDS011;11349;53.412;-1.328;2024-03-07T03:23:28;82.40;;;34.88;;
22363;SDS011;11349;53.412;-1.328;2024-03-07T03:25:54;72.45;;;33.70;;
22363;SDS011;11349;53.412;-1.328;2024-03-07T03:28:20;142.02;;;38.70;;
22363;SDS011;11349;53.412;-1.328;2024-03-07T03:30:47;142.02;;;38.83;;
22363;SDS011;11349;53.412;-1.328;2024-03-07T03:33:13;157.77;;;36.65;;
22363;SDS011;11349;53.412;-1.328;2024-03-07T03:35:40;112.00;;;35.65;;
22363;SDS011;11349;53.412;-1.328;2024-03-07T03:38:06;126.80;;;35.35;;
22363;SDS011;11349;53.412;-1.328;2024-03-07T03:40:33;102.93;;;36.53;;
22363;SDS011;11349;53.412;-1.328;2024-03-07T03:42:59;145.75;;;39.70;;
22363;SDS011;11349;53.412;-1.328;2024-03-07T03:45:25;129.38;;;39.90;;
22363;SDS011;11349;53.412;-1.328;2024-03-07T03:47:51;158.65;;;41.28;;
22363;SDS011;11349;53.412;-1.328;2024-03-07T03:50:18;187.93;;;41.95;;
22363;SDS011;11349;53.412;-1.328;2024-03-07T03:52:44;109.35;;;37.85;;
22363;SDS011;11349;53.412;-1.328;2024-03-07T03:55:10;126.88;;;38.65;;
22363;SDS011;11349;53.412;-1.328;2024-03-07T03:57:37;179.48;;;43.20;;
22363;SDS011;11349;53.412;-1.328;2024-03-07T04:00:06;107.32;;;38.42;;
22363;SDS011;11349;53.412;-1.328;2024-03-07T04:02:41;157.85;;;39.42;;
22363;SDS011;11349;53.412;-1.328;2024-03-07T04:05:08;133.00;;;39.15;;
22363;SDS011;11349;53.412;-1.328;2024-03-07T04:07:35;176.77;;;39.35;;
22363;SDS011;11349;53.412;-1.328;2024-03-07T04:10:01;149.23;;;40.22;;
22363;SDS011;11349;53.412;-1.328;2024-03-07T04:12:28;116.20;;;39.03;;
22363;SDS011;11349;53.412;-1.328;2024-03-07T04:14:54;128.98;;;43.67;;
22363;SDS011;11349;53.412;-1.328;2024-03-07T04:17:20;115.10;;;39.85;;
22363;SDS011;11349;53.412;-1.328;2024-03-07T04:19:46;142.32;;;39.28;;
22363;SDS011;11349;53.412;-1.328;2024-03-07T04:22:13;120.68;;;39.28;;
22363;SDS011;11349;53.412;-1.328;2024-03-07T04:24:38;97.50;;;37.33;;
22363;SDS011;11349;53.412;-1.328;2024-03-07T04:27:06;147.07;;;41.28;;
22363;SDS011;11349;53.412;-1.328;2024-03-07T04:29:32;112.30;;;36.15;;
22363;SDS011;11349;53.412;-1.328;2024-03-07T04:31:59;161.20;;;39.90;;
22363;SDS011;11349;53.412;-1.328;2024-03-07T04:34:26;131.77;;;36.80;;
22363;SDS011;11349;53.412;-1.328;2024-03-07T04:37:01;178.52;;;39.65;;
22363;SDS011;11349;53.412;-1.328;2024-03-07T04:39:27;124.15;;;39.08;;
22363;SDS011;11349;53.412;-1.328;2024-03-07T04:41:57;123.43;;;38.15;;
22363;SDS011;11349;53.412;-1.328;2024-03-07T04:44:27;164.10;;;38.28;;
22363;SDS011;11349;53.412;-1.328;2024-03-07T04:46:59;201.10;;;44.95;;
22363;SDS011;11349;53.412;-1.328;2024-03-07T04:49:29;117.22;;;34.97;;
22363;SDS011;11349;53.412;-1.328;2024-03-07T04:51:56;121.93;;;35.00;;
22363;SDS011;11349;53.412;-1.328;2024-03-07T04:54:23;107.72;;;34.97;;
22363;SDS011;11349;53.412;-1.328;2024-03-07T04:56:51;145.00;;;35.38;;
22363;SDS011;11349;53.412;-1.328;2024-03-07T04:59:18;169.13;;;35.67;;
22363;SDS011;11349;53.412;-1.328;2024-03-07T05:01:45;167.27;;;36.58;;
22363;SDS011;11349;53.412;-1.328;2024-03-07T05:04:11;130.07;;;36.45;;
22363;SDS011;11349;53.412;-1.328;2024-03-07T05:06:38;220.80;;;40.95;;
22363;SDS011;11349;53.412;-1.328;2024-03-07T05:09:05;114.55;;;35.53;;
22363;SDS011;11349;53.412;-1.328;2024-03-07T05:11:32;150.13;;;38.63;;
22363;SDS011;11349;53.412;-1.328;2024-03-07T05:13:59;159.45;;;35.95;;
22363;SDS011;11349;53.412;-1.328;2024-03-07T05:16:28;105.20;;;36.70;;
22363;SDS011;11349;53.412;-1.328;2024-03-07T05:18:56;145.75;;;35.30;;
22363;SDS011;11349;53.412;-1.328;2024-03-07T05:21:26;133.82;;;35.65;;
22363;SDS011;11349;53.412;-1.328;2024-03-07T05:23:58;180.25;;;38.40;;
22363;SDS011;11349;53.412;-1.328;2024-03-07T05:26:24;193.80;;;40.10;;
22363;SDS011;11349;53.412;-1.328;2024-03-07T05:28:51;110.45;;;34.22;;
22363;SDS011;11349;53.412;-1.328;2024-03-07T05:31:19;107.80;;;36.03;;
22363;SDS011;11349;53.412;-1.328;2024-03-07T05:33:45;123.30;;;34.25;;
22363;SDS011;11349;53.412;-1.328;2024-03-07T05:36:11;137.45;;;35.35;;
22363;SDS011;11349;53.412;-1.328;2024-03-07T05:38:40;140.48;;;34.00;;
22363;SDS011;11349;53.412;-1.328;2024-03-07T05:41:10;134.07;;;35.22;;
22363;SDS011;11349;53.412;-1.328;2024-03-07T05:43:37;95.95;;;32.10;;
22363;SDS011;11349;53.412;-1.328;2024-03-07T05:46:03;99.65;;;31.83;;
22363;SDS011;11349;53.412;-1.328;2024-03-07T05:48:32;90.47;;;33.25;;
22363;SDS011;11349;53.412;-1.328;2024-03-07T05:50:58;101.97;;;35.50;;
22363;SDS011;11349;53.412;-1.328;2024-03-07T05:53:25;89.30;;;35.42;;
22363;SDS011;11349;53.412;-1.328;2024-03-07T05:55:50;92.90;;;33.50;;
22363;SDS011;11349;53.412;-1.328;2024-03-07T05:58:16;92.00;;;37.05;;
22363;SDS011;11349;53.412;-1.328;2024-03-07T06:00:48;101.25;;;37.38;;
22363;SDS011;11349;53.412;-1.328;2024-03-07T06:03:17;137.20;;;39.42;;
22363;SDS011;11349;53.412;-1.328;2024-03-07T06:05:48;100.70;;;36.80;;
22363;SDS011;11349;53.412;-1.328;2024-03-07T06:08:15;120.68;;;39.90;;
22363;SDS011;11349;53.412;-1.328;2024-03-07T06:10:42;148.27;;;39.83;;
22363;SDS011;11349;53.412;-1.328;2024-03-07T06:13:11;97.60;;;37.70;;
22363;SDS011;11349;53.412;-1.328;2024-03-07T06:15:38;93.45;;;35.20;;
22363;SDS011;11349;53.412;-1.328;2024-03-07T06:18:05;99.60;;;35.78;;
22363;SDS011;11349;53.412;-1.328;2024-03-07T06:20:33;90.40;;;35.13;;
22363;SDS011;11349;53.412;-1.328;2024-03-07T06:23:03;91.32;;;34.25;;
22363;SDS011;11349;53.412;-1.328;2024-03-07T06:25:32;89.90;;;36.03;;
22363;SDS011;11349;53.412;-1.328;2024-03-07T06:28:15;100.35;;;37.28;;
22363;SDS011;11349;53.412;-1.328;2024-03-07T06:30:46;94.82;;;36.80;;
22363;SDS011;11349;53.412;-1.328;2024-03-07T06:33:12;135.20;;;37.95;;
22363;SDS011;11349;53.412;-1.328;2024-03-07T06:35:39;109.35;;;39.85;;
22363;SDS011;11349;53.412;-1.328;2024-03-07T06:38:06;171.80;;;41.40;;
22363;SDS011;11349;53.412;-1.328;2024-03-07T06:40:33;133.68;;;39.72;;
22363;SDS011;11349;53.412;-1.328;2024-03-07T06:42:59;127.50;;;37.70;;
22363;SDS011;11349;53.412;-1.328;2024-03-07T06:45:26;104.05;;;35.65;;
22363;SDS011;11349;53.412;-1.328;2024-03-07T06:47:51;105.32;;;37.55;;
22363;SDS011;11349;53.412;-1.328;2024-03-07T06:50:20;91.45;;;34.67;;
22363;SDS011;11349;53.412;-1.328;2024-03-07T06:52:46;94.35;;;33.83;;
22363;SDS011;11349;53.412;-1.328;2024-03-07T06:55:14;88.95;;;33.40;;
22363;SDS011;11349;53.412;-1.328;2024-03-07T06:57:47;89.97;;;32.50;;
22363;SDS011;11349;53.412;-1.328;2024-03-07T07:00:13;94.97;;;32.53;;
22363;SDS011;11349;53.412;-1.328;2024-03-07T07:02:45;80.13;;;29.83;;
22363;SDS011;11349;53.412;-1.328;2024-03-07T07:05:11;73.10;;;28.35;;
22363;SDS011;11349;53.412;-1.328;2024-03-07T07:07:38;64.03;;;25.70;;
22363;SDS011;11349;53.412;-1.328;2024-03-07T07:10:04;62.38;;;27.95;;
22363;SDS011;11349;53.412;-1.328;2024-03-07T07:12:34;54.35;;;24.88;;
22363;SDS011;11349;53.412;-1.328;2024-03-07T07:15:00;51.13;;;21.83;;
22363;SDS011;11349;53.412;-1.328;2024-03-07T07:17:26;56.50;;;24.48;;
22363;SDS011;11349;53.412;-1.328;2024-03-07T07:19:54;50.72;;;23.13;;
22363;SDS011;11349;53.412;-1.328;2024-03-07T07:22:24;54.05;;;23.88;;
22363;SDS011;11349;53.412;-1.328;2024-03-07T07:24:50;59.00;;;23.30;;
22363;SDS011;11349;53.412;-1.328;2024-03-07T07:27:16;61.20;;;24.48;;
22363;SDS011;11349;53.412;-1.328;2024-03-07T07:29:43;63.47;;;24.38;;
22363;SDS011;11349;53.412;-1.328;2024-03-07T07:32:09;58.80;;;23.65;;
22363;SDS011;11349;53.412;-1.328;2024-03-07T07:34:37;64.15;;;24.20;;
22363;SDS011;11349;53.412;-1.328;2024-03-07T07:37:04;69.90;;;24.25;;
22363;SDS011;11349;53.412;-1.328;2024-03-07T07:39:30;64.10;;;23.92;;
22363;SDS011;11349;53.412;-1.328;2024-03-07T07:41:56;70.18;;;22.52;;
22363;SDS011;11349;53.412;-1.328;2024-03-07T07:44:22;56.85;;;24.73;;
22363;SDS011;11349;53.412;-1.328;2024-03-07T07:46:48;65.70;;;26.33;;
22363;SDS011;11349;53.412;-1.328;2024-03-07T07:49:14;68.00;;;24.48;;
22363;SDS011;11349;53.412;-1.328;2024-03-07T07:51:41;64.28;;;25.35;;
22363;SDS011;11349;53.412;-1.328;2024-03-07T07:54:07;75.40;;;26.25;;
22363;SDS011;11349;53.412;-1.328;2024-03-07T07:56:34;75.82;;;23.25;;
22363;SDS011;11349;53.412;-1.328;2024-03-07T07:59:00;160.85;;;32.78;;
22363;SDS011;11349;53.412;-1.328;2024-03-07T08:01:28;73.65;;;26.50;;
22363;SDS011;11349;53.412;-1.328;2024-03-07T08:03:54;81.72;;;26.30;;
22363;SDS011;11349;53.412;-1.328;2024-03-07T08:06:19;81.30;;;25.50;;
22363;SDS011;11349;53.412;-1.328;2024-03-07T08:08:45;78.75;;;26.42;;
22363;SDS011;11349;53.412;-1.328;2024-03-07T08:11:11;78.88;;;27.88;;
22363;SDS011;11349;53.412;-1.328;2024-03-07T08:13:39;77.07;;;26.60;;
22363;SDS011;11349;53.412;-1.328;2024-03-07T08:16:05;71.40;;;26.02;;
22363;SDS011;11349;53.412;-1.328;2024-03-07T08:18:32;88.45;;;25.92;;
22363;SDS011;11349;53.412;-1.328;2024-03-07T08:20:58;65.38;;;25.23;;
22363;SDS011;11349;53.412;-1.328;2024-03-07T08:23:24;77.07;;;24.73;;
22363;SDS011;11349;53.412;-1.328;2024-03-07T08:25:51;91.80;;;25.95;;
22363;SDS011;11349;53.412;-1.328;2024-03-07T08:28:17;77.75;;;26.17;;
22363;SDS011;11349;53.412;-1.328;2024-03-07T08:30:43;84.22;;;26.40;;
22363;SDS011;11349;53.412;-1.328;2024-03-07T08:33:09;76.60;;;24.60;;
22363;SDS011;11349;53.412;-1.328;2024-03-07T08:35:35;63.38;;;23.95;;
22363;SDS011;11349;53.412;-1.328;2024-03-07T08:38:01;61.90;;;23.65;;
22363;SDS011;11349;53.412;-1.328;2024-03-07T08:40:28;67.97;;;24.20;;
22363;SDS011;11349;53.412;-1.328;2024-03-07T08:42:57;68.60;;;23.73;;
22363;SDS011;11349;53.412;-1.328;2024-03-07T08:45:23;69.20;;;23.98;;
22363;SDS011;11349;53.412;-1.328;2024-03-07T08:47:53;75.45;;;24.52;;
22363;SDS011;11349;53.412;-1.328;2024-03-07T08:50:20;66.07;;;25.25;;
22363;SDS011;11349;53.412;-1.328;2024-03-07T08:52:46;69.55;;;24.98;;
22363;SDS011;11349;53.412;-1.328;2024-03-07T08:55:16;70.05;;;23.48;;
22363;SDS011;11349;53.412;-1.328;2024-03-07T08:57:44;80.65;;;26.67;;
22363;SDS011;11349;53.412;-1.328;2024-03-07T09:00:14;63.88;;;24.42;;
22363;SDS011;11349;53.412;-1.328;2024-03-07T09:02:50;60.67;;;23.13;;
22363;SDS011;11349;53.412;-1.328;2024-03-07T09:05:18;64.03;;;25.08;;
22363;SDS011;11349;53.412;-1.328;2024-03-07T09:07:45;69.57;;;26.10;;
22363;SDS011;11349;53.412;-1.328;2024-03-07T09:10:12;79.95;;;27.63;;
22363;SDS011;11349;53.412;-1.328;2024-03-07T09:12:39;74.38;;;27.10;;
22363;SDS011;11349;53.412;-1.328;2024-03-07T09:15:06;70.20;;;25.27;;
22363;SDS011;11349;53.412;-1.328;2024-03-07T09:17:32;68.85;;;25.08;;
22363;SDS011;11349;53.412;-1.328;2024-03-07T09:19:58;52.58;;;20.77;;
22363;SDS011;11349;53.412;-1.328;2024-03-07T09:22:23;54.78;;;22.15;;
22363;SDS011;11349;53.412;-1.328;2024-03-07T09:24:50;50.45;;;19.85;;
22363;SDS011;11349;53.412;-1.328;2024-03-07T09:27:16;49.22;;;20.67;;
22363;SDS011;11349;53.412;-1.328;2024-03-07T09:29:45;45.55;;;19.58;;
22363;SDS011;11349;53.412;-1.328;2024-03-07T09:32:12;52.92;;;19.35;;
22363;SDS011;11349;53.412;-1.328;2024-03-07T09:34:38;52.80;;;20.63;;
22363;SDS011;11349;53.412;-1.328;2024-03-07T09:37:04;51.08;;;19.95;;
22363;SDS011;11349;53.412;-1.328;2024-03-07T09:39:32;55.67;;;21.65;;
22363;SDS011;11349;53.412;-1.328;2024-03-07T09:42:00;50.45;;;23.13;;
22363;SDS011;11349;53.412;-1.328;2024-03-07T09:44:27;53.13;;;21.92;;
22363;SDS011;11349;53.412;-1.328;2024-03-07T09:46:54;58.38;;;21.10;;
22363;SDS011;11349;53.412;-1.328;2024-03-07T09:49:23;51.90;;;22.02;;
22363;SDS011;11349;53.412;-1.328;2024-03-07T09:51:50;62.30;;;22.63;;
22363;SDS011;11349;53.412;-1.328;2024-03-07T09:54:20;55.83;;;23.27;;
22363;SDS011;11349;53.412;-1.328;2024-03-07T09:56:49;58.58;;;24.00;;
22363;SDS011;11349;53.412;-1.328;2024-03-07T09:59:17;64.13;;;26.25;;
22363;SDS011;11349;53.412;-1.328;2024-03-07T10:01:48;60.97;;;25.02;;
22363;SDS011;11349;53.412;-1.328;2024-03-07T10:04:20;59.35;;;24.92;;
22363;SDS011;11349;53.412;-1.328;2024-03-07T10:07:13;58.72;;;25.25;;
22363;SDS011;11349;53.412;-1.328;2024-03-07T10:09:43;59.25;;;24.65;;
22363;SDS011;11349;53.412;-1.328;2024-03-07T10:12:10;60.45;;;26.35;;
22363;SDS011;11349;53.412;-1.328;2024-03-07T10:14:38;57.22;;;24.27;;
22363;SDS011;11349;53.412;-1.328;2024-03-07T10:17:04;51.53;;;25.05;;
22363;SDS011;11349;53.412;-1.328;2024-03-07T10:19:30;60.15;;;25.38;;
22363;SDS011;11349;53.412;-1.328;2024-03-07T10:21:56;54.00;;;25.77;;
22363;SDS011;11349;53.412;-1.328;2024-03-07T10:24:27;56.70;;;26.17;;
22363;SDS011;11349;53.412;-1.328;2024-03-07T10:26:53;51.28;;;21.88;;
22363;SDS011;11349;53.412;-1.328;2024-03-07T10:29:21;55.55;;;24.42;;
22363;SDS011;11349;53.412;-1.328;2024-03-07T10:31:48;51.83;;;23.80;;
22363;SDS011;11349;53.412;-1.328;2024-03-07T10:34:14;52.97;;;26.85;;
22363;SDS011;11349;53.412;-1.328;2024-03-07T10:36:43;51.75;;;26.33;;
22363;SDS011;11349;53.412;-1.328;2024-03-07T10:39:10;53.65;;;26.17;;
22363;SDS011;11349;53.412;-1.328;2024-03-07T10:41:48;57.35;;;27.83;;
22363;SDS011;11349;53.412;-1.328;2024-03-07T10:44:24;56.25;;;27.67;;
22363;SDS011;11349;53.412;-1.328;2024-03-07T10:46:54;61.30;;;28.55;;
22363;SDS011;11349;53.412;-1.328;2024-03-07T10:49:22;63.30;;;29.17;;
22363;SDS011;11349;53.412;-1.328;2024-03-07T10:51:57;71.97;;;30.35;;
22363;SDS011;11349;53.412;-1.328;2024-03-07T10:55:08;64.75;;;27.80;;
22363;SDS011;11349;53.412;-1.328;2024-03-07T10:57:50;62.03;;;28.38;;
22363;SDS011;11349;53.412;-1.328;2024-03-07T11:00:26;67.10;;;29.73;;
22363;SDS011;11349;53.412;-1.328;2024-03-07T11:03:00;70.53;;;30.40;;
22363;SDS011;11349;53.412;-1.328;2024-03-07T11:05:32;66.80;;;30.02;;
22363;SDS011;11349;53.412;-1.328;2024-03-07T11:08:01;71.13;;;31.50;;
22363;SDS011;11349;53.412;-1.328;2024-03-07T11:10:37;72.57;;;32.00;;
22363;SDS011;11349;53.412;-1.328;2024-03-07T11:13:04;77.18;;;32.03;;
22363;SDS011;11349;53.412;-1.328;2024-03-07T11:15:32;73.97;;;32.22;;
22363;SDS011;11349;53.412;-1.328;2024-03-07T11:18:02;80.72;;;34.88;;
22363;SDS011;11349;53.412;-1.328;2024-03-07T11:20:38;83.05;;;35.00;;
22363;SDS011;11349;53.412;-1.328;2024-03-07T11:25:53;83.28;;;36.10;;
22363;SDS011;11349;53.412;-1.328;2024-03-07T11:28:42;80.53;;;35.15;;
22363;SDS011;11349;53.412;-1.328;2024-03-07T11:31:08;85.10;;;36.28;;
22363;SDS011;11349;53.412;-1.328;2024-03-07T11:33:39;94.88;;;40.17;;
22363;SDS011;11349;53.412;-1.328;2024-03-07T11:36:08;91.10;;;38.65;;
22363;SDS011;11349;53.412;-1.328;2024-03-07T11:38:37;82.97;;;35.90;;
22363;SDS011;11349;53.412;-1.328;2024-03-07T11:41:03;95.68;;;42.05;;
22363;SDS011;11349;53.412;-1.328;2024-03-07T11:43:40;93.53;;;41.70;;
22363;SDS011;11349;53.412;-1.328;2024-03-07T11:46:07;99.97;;;41.22;;
22363;SDS011;11349;53.412;-1.328;2024-03-07T11:48:39;93.07;;;41.83;;
22363;SDS011;11349;53.412;-1.328;2024-03-07T11:51:06;100.32;;;42.50;;
22363;SDS011;11349;53.412;-1.328;2024-03-07T11:53:36;105.82;;;43.78;;
22363;SDS011;11349;53.412;-1.328;2024-03-07T11:56:05;94.97;;;39.40;;
22363;SDS011;11349;53.412;-1.328;2024-03-07T11:58:41;102.88;;;44.00;;
22363;SDS011;11349;53.412;-1.328;2024-03-07T12:01:09;92.68;;;39.90;;
22363;SDS011;11349;53.412;-1.328;2024-03-07T12:03:38;101.25;;;41.92;;
22363;SDS011;11349;53.412;-1.328;2024-03-07T12:06:04;98.32;;;42.83;;
22363;SDS011;11349;53.412;-1.328;2024-03-07T12:08:30;95.88;;;45.22;;
22363;SDS011;11349;53.412;-1.328;2024-03-07T12:10:56;93.03;;;43.38;;
22363;SDS011;11349;53.412;-1.328;2024-03-07T12:13:22;93.80;;;42.15;;
22363;SDS011;11349;53.412;-1.328;2024-03-07T12:15:49;97.97;;;44.45;;
22363;SDS011;11349;53.412;-1.328;2024-03-07T12:18:20;97.07;;;43.05;;
22363;SDS011;11349;53.412;-1.328;2024-03-07T12:20:48;86.93;;;41.08;;
22363;SDS011;11349;53.412;-1.328;2024-03-07T12:23:19;93.60;;;43.45;;
22363;SDS011;11349;53.412;-1.328;2024-03-07T12:25:47;92.13;;;42.88;;
22363;SDS011;11349;53.412;-1.328;2024-03-07T12:28:13;83.53;;;40.92;;
22363;SDS011;11349;53.412;-1.328;2024-03-07T12:33:23;88.28;;;41.15;;
22363;SDS011;11349;53.412;-1.328;2024-03-07T12:35:52;87.38;;;43.60;;
22363;SDS011;11349;53.412;-1.328;2024-03-07T12:38:25;85.28;;;39.47;;
22363;SDS011;11349;53.412;-1.328;2024-03-07T12:41:07;82.43;;;41.92;;
22363;SDS011;11349;53.412;-1.328;2024-03-07T12:43:42;74.90;;;36.53;;
22363;SDS011;11349;53.412;-1.328;2024-03-07T12:46:11;68.50;;;37.65;;
22363;SDS011;11349;53.412;-1.328;2024-03-07T12:48:38;73.07;;;36.83;;
22363;SDS011;11349;53.412;-1.328;2024-03-07T12:51:04;63.55;;;33.97;;
22363;SDS011;11349;53.412;-1.328;2024-03-07T12:53:30;61.20;;;32.53;;
22363;SDS011;11349;53.412;-1.328;2024-03-07T12:55:56;59.22;;;31.65;;
22363;SDS011;11349;53.412;-1.328;2024-03-07T12:58:22;59.10;;;30.42;;
22363;SDS011;11349;53.412;-1.328;2024-03-07T13:00:51;63.67;;;32.35;;
22363;SDS011;11349;53.412;-1.328;2024-03-07T13:03:18;55.05;;;30.35;;
22363;SDS011;11349;53.412;-1.328;2024-03-07T13:05:43;61.30;;;30.45;;
22363;SDS011;11349;53.412;-1.328;2024-03-07T13:08:09;53.78;;;30.88;;
22363;SDS011;11349;53.412;-1.328;2024-03-07T13:10:41;57.15;;;28.98;;
22363;SDS011;11349;53.412;-1.328;2024-03-07T13:13:08;51.80;;;28.38;;
22363;SDS011;11349;53.412;-1.328;2024-03-07T13:15:37;55.45;;;28.05;;
22363;SDS011;11349;53.412;-1.328;2024-03-07T13:18:07;48.13;;;27.40;;
22363;SDS011;11349;53.412;-1.328;2024-03-07T13:20:38;47.00;;;25.02;;
22363;SDS011;11349;53.412;-1.328;2024-03-07T13:23:04;44.88;;;23.90;;
22363;SDS011;11349;53.412;-1.328;2024-03-07T13:25:30;48.45;;;24.15;;
22363;SDS011;11349;53.412;-1.328;2024-03-07T13:28:00;40.05;;;23.38;;
22363;SDS011;11349;53.412;-1.328;2024-03-07T13:30:29;39.85;;;21.77;;
22363;SDS011;11349;53.412;-1.328;2024-03-07T13:32:55;38.72;;;21.23;;
22363;SDS011;11349;53.412;-1.328;2024-03-07T13:35:25;40.53;;;22.80;;
22363;SDS011;11349;53.412;-1.328;2024-03-07T13:37:54;41.42;;;23.10;;
22363;SDS011;11349;53.412;-1.328;2024-03-07T13:40:22;46.83;;;24.48;;
22363;SDS011;11349;53.412;-1.328;2024-03-07T13:42:53;43.63;;;22.98;;
22363;SDS011;11349;53.412;-1.328;2024-03-07T13:45:30;41.58;;;21.48;;
22363;SDS011;11349;53.412;-1.328;2024-03-07T13:47:57;42.90;;;22.73;;
22363;SDS011;11349;53.412;-1.328;2024-03-07T13:50:25;41.60;;;22.45;;
22363;SDS011;11349;53.412;-1.328;2024-03-07T13:52:55;43.10;;;23.77;;
22363;SDS011;11349;53.412;-1.328;2024-03-07T13:55:47;45.78;;;23.88;;
22363;SDS011;11349;53.412;-1.328;2024-03-07T13:58:40;41.35;;;22.90;;
22363;SDS011;11349;53.412;-1.328;2024-03-07T14:05:59;41.17;;;23.23;;
22363;SDS011;11349;53.412;-1.328;2024-03-07T14:26:37;48.90;;;26.95;;
22363;SDS011;11349;53.412;-1.328;2024-03-07T14:31:56;47.92;;;28.17;;
22363;SDS011;11349;53.412;-1.328;2024-03-07T14:34:33;52.10;;;27.75;;
22363;SDS011;11349;53.412;-1.328;2024-03-07T14:37:27;52.63;;;28.55;;
22363;SDS011;11349;53.412;-1.328;2024-03-07T14:40:09;52.08;;;29.55;;
22363;SDS011;11349;53.412;-1.328;2024-03-07T14:42:47;55.88;;;30.05;;